sensor_id;sensor_type;location;lat;lon;timestamp;temperature;humidity
74657;DHT22;63185;45.642;13.764;2023-02-28T00:00:21;5.10;54.50
74657;DHT22;63185;45.642;13.764;2023-02-28T00:02:47;5.10;55.00
74657;DHT22;63185;45.642;13.764;2023-02-28T00:05:17;5.10;55.00
74657;DHT22;63185;45.642;13.764;2023-02-28T00:07:43;5.20;54.90
74657;DHT22;63185;45.642;13.764;2023-02-28T00:10:11;5.10;54.90
74657;DHT22;63185;45.642;13.764;2023-02-28T00:12:37;5.10;54.80
74657;DHT22;63185;45.642;13.764;2023-02-28T00:15:09;5.10;54.80
74657;DHT22;63185;45.642;13.764;2023-02-28T00:17:35;5.10;54.50
74657;DHT22;63185;45.642;13.764;2023-02-28T00:20:02;5.10;55.00
74657;DHT22;63185;45.642;13.764;2023-02-28T00:22:39;5.10;54.90
74657;DHT22;63185;45.642;13.764;2023-02-28T00:25:05;5.10;54.70
74657;DHT22;63185;45.642;13.764;2023-02-28T00:27:32;5.10;54.60
74657;DHT22;63185;45.642;13.764;2023-02-28T00:29:58;5.10;54.80
74657;DHT22;63185;45.642;13.764;2023-02-28T00:32:24;5.00;54.90
74657;DHT22;63185;45.642;13.764;2023-02-28T00:34:49;5.00;54.70
74657;DHT22;63185;45.642;13.764;2023-02-28T00:37:15;5.00;54.70
74657;DHT22;63185;45.642;13.764;2023-02-28T00:39:41;5.00;54.50
74657;DHT22;63185;45.642;13.764;2023-02-28T00:42:07;5.10;55.00
74657;DHT22;63185;45.642;13.764;2023-02-28T00:44:34;5.00;54.90
74657;DHT22;63185;45.642;13.764;2023-02-28T00:47:00;5.00;55.10
74657;DHT22;63185;45.642;13.764;2023-02-28T00:49:26;5.10;55.30
74657;DHT22;63185;45.642;13.764;2023-02-28T00:51:53;5.10;54.60
74657;DHT22;63185;45.642;13.764;2023-02-28T00:54:21;5.10;55.00
74657;DHT22;63185;45.642;13.764;2023-02-28T00:56:47;5.00;54.60
74657;DHT22;63185;45.642;13.764;2023-02-28T00:59:14;5.10;55.00
74657;DHT22;63185;45.642;13.764;2023-02-28T01:01:39;5.10;55.10
74657;DHT22;63185;45.642;13.764;2023-02-28T01:04:05;5.10;54.90
74657;DHT22;63185;45.642;13.764;2023-02-28T01:06:31;5.10;55.10
74657;DHT22;63185;45.642;13.764;2023-02-28T01:08:57;5.10;55.10
74657;DHT22;63185;45.642;13.764;2023-02-28T01:11:24;5.00;55.20
74657;DHT22;63185;45.642;13.764;2023-02-28T01:13:50;5.10;55.00
74657;DHT22;63185;45.642;13.764;2023-02-28T01:16:15;5.10;54.80
74657;DHT22;63185;45.642;13.764;2023-02-28T01:18:41;5.10;54.90
74657;DHT22;63185;45.642;13.764;2023-02-28T01:21:10;5.10;54.70
74657;DHT22;63185;45.642;13.764;2023-02-28T01:23:36;5.10;55.20
74657;DHT22;63185;45.642;13.764;2023-02-28T01:26:13;5.20;54.70
74657;DHT22;63185;45.642;13.764;2023-02-28T01:28:40;5.10;54.80
74657;DHT22;63185;45.642;13.764;2023-02-28T01:31:06;5.10;54.80
74657;DHT22;63185;45.642;13.764;2023-02-28T01:33:32;5.10;54.90
74657;DHT22;63185;45.642;13.764;2023-02-28T01:36:04;5.10;54.60
74657;DHT22;63185;45.642;13.764;2023-02-28T01:38:31;5.20;54.60
74657;DHT22;63185;45.642;13.764;2023-02-28T01:40:57;5.10;54.80
74657;DHT22;63185;45.642;13.764;2023-02-28T01:46:12;5.10;54.60
74657;DHT22;63185;45.642;13.764;2023-02-28T01:51:17;5.10;54.80
74657;DHT22;63185;45.642;13.764;2023-02-28T01:53:49;5.10;54.70
74657;DHT22;63185;45.642;13.764;2023-02-28T01:56:20;5.10;54.90
74657;DHT22;63185;45.642;13.764;2023-02-28T01:58:51;5.10;54.90
74657;DHT22;63185;45.642;13.764;2023-02-28T02:01:21;5.10;54.80
74657;DHT22;63185;45.642;13.764;2023-02-28T02:03:57;5.20;55.00
74657;DHT22;63185;45.642;13.764;2023-02-28T02:06:36;5.20;54.90
74657;DHT22;63185;45.642;13.764;2023-02-28T02:09:02;5.10;54.90
74657;DHT22;63185;45.642;13.764;2023-02-28T02:11:28;5.20;54.90
74657;DHT22;63185;45.642;13.764;2023-02-28T02:16:48;5.30;55.00
74657;DHT22;63185;45.642;13.764;2023-02-28T02:22:21;5.30;54.50
74657;DHT22;63185;45.642;13.764;2023-02-28T02:36:56;5.40;54.80
74657;DHT22;63185;45.642;13.764;2023-02-28T02:39:54;5.40;54.50
74657;DHT22;63185;45.642;13.764;2023-02-28T02:42:39;5.40;54.50
74657;DHT22;63185;45.642;13.764;2023-02-28T02:45:25;5.40;54.40
74657;DHT22;63185;45.642;13.764;2023-02-28T02:47:56;5.40;54.50
74657;DHT22;63185;45.642;13.764;2023-02-28T02:50:27;5.40;54.70
74657;DHT22;63185;45.642;13.764;2023-02-28T02:52:57;5.40;54.70
74657;DHT22;63185;45.642;13.764;2023-02-28T02:55:25;5.40;54.80
74657;DHT22;63185;45.642;13.764;2023-02-28T02:57:58;5.40;54.80
74657;DHT22;63185;45.642;13.764;2023-02-28T03:00:31;5.30;55.10
74657;DHT22;63185;45.642;13.764;2023-02-28T03:02:58;5.30;55.50
74657;DHT22;63185;45.642;13.764;2023-02-28T03:05:34;5.30;55.30
74657;DHT22;63185;45.642;13.764;2023-02-28T03:08:04;5.30;55.00
74657;DHT22;63185;45.642;13.764;2023-02-28T03:10:40;5.40;55.10
74657;DHT22;63185;45.642;13.764;2023-02-28T03:16:36;5.30;55.00
74657;DHT22;63185;45.642;13.764;2023-02-28T03:22:03;5.20;55.10
74657;DHT22;63185;45.642;13.764;2023-02-28T03:24:45;5.20;55.20
74657;DHT22;63185;45.642;13.764;2023-02-28T03:27:27;5.20;55.90
74657;DHT22;63185;45.642;13.764;2023-02-28T03:30:22;5.20;56.00
74657;DHT22;63185;45.642;13.764;2023-02-28T03:32:57;5.20;55.30
74657;DHT22;63185;45.642;13.764;2023-02-28T03:35:31;5.20;55.80
74657;DHT22;63185;45.642;13.764;2023-02-28T03:38:54;5.20;55.50
74657;DHT22;63185;45.642;13.764;2023-02-28T03:41:14;5.20;55.90
74657;DHT22;63185;45.642;13.764;2023-02-28T03:43:45;5.10;56.00
74657;DHT22;63185;45.642;13.764;2023-02-28T03:46:16;5.20;56.10
74657;DHT22;63185;45.642;13.764;2023-02-28T03:48:56;5.20;56.10
74657;DHT22;63185;45.642;13.764;2023-02-28T03:51:24;5.20;56.00
74657;DHT22;63185;45.642;13.764;2023-02-28T03:53:54;5.10;56.10
74657;DHT22;63185;45.642;13.764;2023-02-28T03:56:40;5.20;56.40
74657;DHT22;63185;45.642;13.764;2023-02-28T03:59:34;5.10;56.20
74657;DHT22;63185;45.642;13.764;2023-02-28T04:02:02;5.10;56.40
74657;DHT22;63185;45.642;13.764;2023-02-28T04:04:28;5.10;56.60
74657;DHT22;63185;45.642;13.764;2023-02-28T04:07:05;5.10;56.80
74657;DHT22;63185;45.642;13.764;2023-02-28T04:09:31;5.10;56.60
74657;DHT22;63185;45.642;13.764;2023-02-28T04:11:56;5.00;57.00
74657;DHT22;63185;45.642;13.764;2023-02-28T04:14:22;5.10;56.70
74657;DHT22;63185;45.642;13.764;2023-02-28T04:16:48;5.10;57.00
74657;DHT22;63185;45.642;13.764;2023-02-28T04:19:14;5.10;56.80
74657;DHT22;63185;45.642;13.764;2023-02-28T04:21:43;5.10;57.00
74657;DHT22;63185;45.642;13.764;2023-02-28T04:24:12;5.00;57.00
74657;DHT22;63185;45.642;13.764;2023-02-28T04:26:46;5.10;56.80
74657;DHT22;63185;45.642;13.764;2023-02-28T04:29:14;5.10;56.90
74657;DHT22;63185;45.642;13.764;2023-02-28T04:31:42;5.10;56.90
74657;DHT22;63185;45.642;13.764;2023-02-28T04:34:08;5.20;56.70
74657;DHT22;63185;45.642;13.764;2023-02-28T04:36:34;5.10;57.00
74657;DHT22;63185;45.642;13.764;2023-02-28T04:39:00;5.10;57.20
74657;DHT22;63185;45.642;13.764;2023-02-28T04:41:26;5.10;57.10
74657;DHT22;63185;45.642;13.764;2023-02-28T04:43:52;5.10;57.00
74657;DHT22;63185;45.642;13.764;2023-02-28T04:46:18;5.10;57.20
74657;DHT22;63185;45.642;13.764;2023-02-28T04:48:44;5.10;57.30
74657;DHT22;63185;45.642;13.764;2023-02-28T04:51:12;5.10;57.30
74657;DHT22;63185;45.642;13.764;2023-02-28T04:53:40;5.00;57.50
74657;DHT22;63185;45.642;13.764;2023-02-28T04:56:07;5.10;57.20
74657;DHT22;63185;45.642;13.764;2023-02-28T04:58:33;5.10;57.30
74657;DHT22;63185;45.642;13.764;2023-02-28T05:03:43;5.10;57.20
74657;DHT22;63185;45.642;13.764;2023-02-28T05:06:09;5.10;57.20
74657;DHT22;63185;45.642;13.764;2023-02-28T05:08:36;5.10;57.10
74657;DHT22;63185;45.642;13.764;2023-02-28T05:11:02;5.10;57.30
74657;DHT22;63185;45.642;13.764;2023-02-28T05:13:28;5.10;57.60
74657;DHT22;63185;45.642;13.764;2023-02-28T05:15:55;5.10;57.60
74657;DHT22;63185;45.642;13.764;2023-02-28T05:18:20;5.10;57.50
74657;DHT22;63185;45.642;13.764;2023-02-28T05:20:47;5.00;57.60
74657;DHT22;63185;45.642;13.764;2023-02-28T05:23:13;5.10;57.60
74657;DHT22;63185;45.642;13.764;2023-02-28T05:25:39;5.10;57.70
74657;DHT22;63185;45.642;13.764;2023-02-28T05:28:05;5.00;57.90
74657;DHT22;63185;45.642;13.764;2023-02-28T05:30:31;4.90;58.20
74657;DHT22;63185;45.642;13.764;2023-02-28T05:32:57;5.00;58.00
74657;DHT22;63185;45.642;13.764;2023-02-28T05:35:24;5.00;58.20
74657;DHT22;63185;45.642;13.764;2023-02-28T05:37:50;5.00;57.90
74657;DHT22;63185;45.642;13.764;2023-02-28T05:40:16;5.00;58.30
74657;DHT22;63185;45.642;13.764;2023-02-28T05:42:42;5.10;57.80
74657;DHT22;63185;45.642;13.764;2023-02-28T05:45:09;5.00;58.00
74657;DHT22;63185;45.642;13.764;2023-02-28T05:47:35;5.10;57.90
74657;DHT22;63185;45.642;13.764;2023-02-28T05:50:01;5.10;57.90
74657;DHT22;63185;45.642;13.764;2023-02-28T05:52:28;5.10;57.90
74657;DHT22;63185;45.642;13.764;2023-02-28T05:54:55;5.10;57.70
74657;DHT22;63185;45.642;13.764;2023-02-28T05:57:22;5.20;57.50
74657;DHT22;63185;45.642;13.764;2023-02-28T05:59:48;5.10;57.60
74657;DHT22;63185;45.642;13.764;2023-02-28T06:02:15;5.10;57.60
74657;DHT22;63185;45.642;13.764;2023-02-28T06:04:42;5.20;57.20
74657;DHT22;63185;45.642;13.764;2023-02-28T06:07:09;5.10;57.20
74657;DHT22;63185;45.642;13.764;2023-02-28T06:09:34;5.10;57.80
74657;DHT22;63185;45.642;13.764;2023-02-28T06:12:01;5.30;57.20
74657;DHT22;63185;45.642;13.764;2023-02-28T06:14:29;5.20;57.60
74657;DHT22;63185;45.642;13.764;2023-02-28T06:16:57;5.20;57.30
74657;DHT22;63185;45.642;13.764;2023-02-28T06:19:23;5.20;57.50
74657;DHT22;63185;45.642;13.764;2023-02-28T06:21:51;5.30;57.10
74657;DHT22;63185;45.642;13.764;2023-02-28T06:24:22;5.20;57.10
74657;DHT22;63185;45.642;13.764;2023-02-28T06:26:48;5.30;57.00
74657;DHT22;63185;45.642;13.764;2023-02-28T06:29:14;5.40;57.00
74657;DHT22;63185;45.642;13.764;2023-02-28T06:31:47;5.30;57.00
74657;DHT22;63185;45.642;13.764;2023-02-28T06:34:13;5.40;56.90
74657;DHT22;63185;45.642;13.764;2023-02-28T06:36:39;5.30;56.60
74657;DHT22;63185;45.642;13.764;2023-02-28T06:39:06;5.40;56.90
74657;DHT22;63185;45.642;13.764;2023-02-28T06:41:31;5.40;56.80
74657;DHT22;63185;45.642;13.764;2023-02-28T06:43:59;5.50;56.60
74657;DHT22;63185;45.642;13.764;2023-02-28T06:46:24;5.60;56.30
74657;DHT22;63185;45.642;13.764;2023-02-28T06:48:50;5.50;56.30
74657;DHT22;63185;45.642;13.764;2023-02-28T06:51:18;5.60;56.20
74657;DHT22;63185;45.642;13.764;2023-02-28T06:53:45;5.60;56.10
74657;DHT22;63185;45.642;13.764;2023-02-28T06:56:14;5.60;56.00
74657;DHT22;63185;45.642;13.764;2023-02-28T06:58:40;5.60;56.40
74657;DHT22;63185;45.642;13.764;2023-02-28T07:01:07;5.60;56.30
74657;DHT22;63185;45.642;13.764;2023-02-28T07:03:35;5.70;56.20
74657;DHT22;63185;45.642;13.764;2023-02-28T07:06:01;5.60;56.10
74657;DHT22;63185;45.642;13.764;2023-02-28T07:08:28;5.70;56.20
74657;DHT22;63185;45.642;13.764;2023-02-28T07:10:57;5.60;56.50
74657;DHT22;63185;45.642;13.764;2023-02-28T07:13:23;5.70;56.10
74657;DHT22;63185;45.642;13.764;2023-02-28T07:15:54;5.70;56.10
74657;DHT22;63185;45.642;13.764;2023-02-28T07:18:20;5.60;56.30
74657;DHT22;63185;45.642;13.764;2023-02-28T07:20:45;5.70;55.90
74657;DHT22;63185;45.642;13.764;2023-02-28T07:23:11;5.70;56.10
74657;DHT22;63185;45.642;13.764;2023-02-28T07:25:37;5.80;56.30
74657;DHT22;63185;45.642;13.764;2023-02-28T07:28:03;5.90;55.80
74657;DHT22;63185;45.642;13.764;2023-02-28T07:30:28;5.70;56.20
74657;DHT22;63185;45.642;13.764;2023-02-28T07:32:54;5.80;56.10
74657;DHT22;63185;45.642;13.764;2023-02-28T07:35:22;5.90;55.60
74657;DHT22;63185;45.642;13.764;2023-02-28T07:37:48;5.90;55.70
74657;DHT22;63185;45.642;13.764;2023-02-28T07:40:14;5.90;55.60
74657;DHT22;63185;45.642;13.764;2023-02-28T07:42:41;6.00;55.40
74657;DHT22;63185;45.642;13.764;2023-02-28T07:45:08;6.00;55.10
74657;DHT22;63185;45.642;13.764;2023-02-28T07:47:37;6.00;54.80
74657;DHT22;63185;45.642;13.764;2023-02-28T07:50:03;6.10;54.80
74657;DHT22;63185;45.642;13.764;2023-02-28T07:52:29;6.10;54.90
74657;DHT22;63185;45.642;13.764;2023-02-28T07:54:56;6.10;54.80
74657;DHT22;63185;45.642;13.764;2023-02-28T07:57:22;6.30;54.70
74657;DHT22;63185;45.642;13.764;2023-02-28T07:59:47;6.20;54.80
74657;DHT22;63185;45.642;13.764;2023-02-28T08:02:14;6.20;54.50
74657;DHT22;63185;45.642;13.764;2023-02-28T08:04:40;6.20;54.60
74657;DHT22;63185;45.642;13.764;2023-02-28T08:07:06;6.20;54.70
74657;DHT22;63185;45.642;13.764;2023-02-28T08:09:33;6.20;54.30
74657;DHT22;63185;45.642;13.764;2023-02-28T08:11:59;6.30;54.10
74657;DHT22;63185;45.642;13.764;2023-02-28T08:14:25;6.40;53.80
74657;DHT22;63185;45.642;13.764;2023-02-28T08:16:51;6.30;54.30
74657;DHT22;63185;45.642;13.764;2023-02-28T08:19:16;6.30;54.30
74657;DHT22;63185;45.642;13.764;2023-02-28T08:21:42;6.40;54.20
74657;DHT22;63185;45.642;13.764;2023-02-28T08:24:08;6.30;54.00
74657;DHT22;63185;45.642;13.764;2023-02-28T08:26:33;6.20;54.30
74657;DHT22;63185;45.642;13.764;2023-02-28T08:28:59;6.30;54.20
74657;DHT22;63185;45.642;13.764;2023-02-28T08:31:25;6.40;54.10
74657;DHT22;63185;45.642;13.764;2023-02-28T08:33:51;6.50;53.70
74657;DHT22;63185;45.642;13.764;2023-02-28T08:36:19;6.60;53.90
74657;DHT22;63185;45.642;13.764;2023-02-28T08:38:44;6.60;53.60
74657;DHT22;63185;45.642;13.764;2023-02-28T08:41:12;6.70;53.20
74657;DHT22;63185;45.642;13.764;2023-02-28T08:43:39;6.60;52.90
74657;DHT22;63185;45.642;13.764;2023-02-28T08:46:05;6.70;53.30
74657;DHT22;63185;45.642;13.764;2023-02-28T08:48:33;6.70;53.10
74657;DHT22;63185;45.642;13.764;2023-02-28T08:51:01;6.70;53.20
74657;DHT22;63185;45.642;13.764;2023-02-28T08:53:28;6.90;52.60
74657;DHT22;63185;45.642;13.764;2023-02-28T08:55:59;7.00;52.40
74657;DHT22;63185;45.642;13.764;2023-02-28T08:58:25;6.90;52.50
74657;DHT22;63185;45.642;13.764;2023-02-28T09:00:51;6.90;52.40
74657;DHT22;63185;45.642;13.764;2023-02-28T09:03:17;7.00;52.60
74657;DHT22;63185;45.642;13.764;2023-02-28T09:05:58;6.90;52.70
74657;DHT22;63185;45.642;13.764;2023-02-28T09:08:26;7.00;52.70
74657;DHT22;63185;45.642;13.764;2023-02-28T09:10:52;6.90;52.70
74657;DHT22;63185;45.642;13.764;2023-02-28T09:13:20;7.10;52.70
74657;DHT22;63185;45.642;13.764;2023-02-28T09:15:46;7.10;52.40
74657;DHT22;63185;45.642;13.764;2023-02-28T09:18:12;7.00;52.30
74657;DHT22;63185;45.642;13.764;2023-02-28T09:20:38;7.10;52.20
74657;DHT22;63185;45.642;13.764;2023-02-28T09:23:05;7.20;52.40
74657;DHT22;63185;45.642;13.764;2023-02-28T09:25:31;7.20;52.00
74657;DHT22;63185;45.642;13.764;2023-02-28T09:27:57;7.10;52.00
74657;DHT22;63185;45.642;13.764;2023-02-28T09:30:23;7.20;52.20
74657;DHT22;63185;45.642;13.764;2023-02-28T09:32:48;7.40;51.70
74657;DHT22;63185;45.642;13.764;2023-02-28T09:35:24;7.50;51.50
74657;DHT22;63185;45.642;13.764;2023-02-28T09:37:51;7.50;51.00
74657;DHT22;63185;45.642;13.764;2023-02-28T09:40:22;7.50;51.10
74657;DHT22;63185;45.642;13.764;2023-02-28T09:42:51;7.60;51.30
74657;DHT22;63185;45.642;13.764;2023-02-28T09:47:47;7.60;51.00
74657;DHT22;63185;45.642;13.764;2023-02-28T09:52:53;7.60;51.20
74657;DHT22;63185;45.642;13.764;2023-02-28T09:55:26;7.70;50.80
74657;DHT22;63185;45.642;13.764;2023-02-28T09:57:55;7.70;51.00
74657;DHT22;63185;45.642;13.764;2023-02-28T10:05:53;7.80;50.80
74657;DHT22;63185;45.642;13.764;2023-02-28T10:08:29;8.00;50.70
74657;DHT22;63185;45.642;13.764;2023-02-28T10:11:07;8.00;50.20
74657;DHT22;63185;45.642;13.764;2023-02-28T10:13:36;8.00;50.50
74657;DHT22;63185;45.642;13.764;2023-02-28T10:16:31;8.00;50.20
74657;DHT22;63185;45.642;13.764;2023-02-28T10:26:59;8.20;50.40
74657;DHT22;63185;45.642;13.764;2023-02-28T10:29:26;8.20;50.00
74657;DHT22;63185;45.642;13.764;2023-02-28T10:31:52;8.30;49.90
74657;DHT22;63185;45.642;13.764;2023-02-28T10:34:18;8.30;49.70
74657;DHT22;63185;45.642;13.764;2023-02-28T10:36:44;8.30;49.90
74657;DHT22;63185;45.642;13.764;2023-02-28T10:42:01;8.40;49.50
74657;DHT22;63185;45.642;13.764;2023-02-28T10:44:27;8.40;49.80
74657;DHT22;63185;45.642;13.764;2023-02-28T10:46:53;8.40;49.30
74657;DHT22;63185;45.642;13.764;2023-02-28T10:49:29;8.40;49.50
74657;DHT22;63185;45.642;13.764;2023-02-28T10:51:59;8.40;49.30
74657;DHT22;63185;45.642;13.764;2023-02-28T10:54:32;8.60;49.60
74657;DHT22;63185;45.642;13.764;2023-02-28T10:59:41;8.40;49.30
74657;DHT22;63185;45.642;13.764;2023-02-28T11:02:31;8.60;49.60
74657;DHT22;63185;45.642;13.764;2023-02-28T11:04:57;8.60;49.20
74657;DHT22;63185;45.642;13.764;2023-02-28T11:07:25;8.80;49.30
74657;DHT22;63185;45.642;13.764;2023-02-28T11:09:56;8.90;48.90
74657;DHT22;63185;45.642;13.764;2023-02-28T11:15:06;8.70;48.50
74657;DHT22;63185;45.642;13.764;2023-02-28T11:17:32;8.60;48.50
74657;DHT22;63185;45.642;13.764;2023-02-28T11:20:02;8.50;49.30
74657;DHT22;63185;45.642;13.764;2023-02-28T11:22:31;8.50;49.50
74657;DHT22;63185;45.642;13.764;2023-02-28T11:25:02;8.60;49.30
74657;DHT22;63185;45.642;13.764;2023-02-28T11:29:59;8.70;49.30
74657;DHT22;63185;45.642;13.764;2023-02-28T11:32:29;8.70;49.10
74657;DHT22;63185;45.642;13.764;2023-02-28T11:37:38;8.70;49.40
74657;DHT22;63185;45.642;13.764;2023-02-28T11:40:27;8.80;48.90
74657;DHT22;63185;45.642;13.764;2023-02-28T11:48:20;9.00;48.90
74657;DHT22;63185;45.642;13.764;2023-02-28T11:51:27;8.90;49.00
74657;DHT22;63185;45.642;13.764;2023-02-28T11:56:41;9.10;48.70
74657;DHT22;63185;45.642;13.764;2023-02-28T11:59:30;8.90;49.00
74657;DHT22;63185;45.642;13.764;2023-02-28T12:19:05;9.10;48.50
74657;DHT22;63185;45.642;13.764;2023-02-28T12:31:47;9.00;48.90
74657;DHT22;63185;45.642;13.764;2023-02-28T12:34:22;9.10;48.70
74657;DHT22;63185;45.642;13.764;2023-02-28T12:36:52;9.10;48.40
74657;DHT22;63185;45.642;13.764;2023-02-28T12:39:28;9.10;48.60
74657;DHT22;63185;45.642;13.764;2023-02-28T12:42:05;8.90;48.60
74657;DHT22;63185;45.642;13.764;2023-02-28T12:44:57;8.90;48.80
74657;DHT22;63185;45.642;13.764;2023-02-28T12:47:24;8.90;48.60
74657;DHT22;63185;45.642;13.764;2023-02-28T12:49:54;8.90;49.10
74657;DHT22;63185;45.642;13.764;2023-02-28T12:53:07;8.90;49.50
74657;DHT22;63185;45.642;13.764;2023-02-28T13:04:29;9.00;49.00
74657;DHT22;63185;45.642;13.764;2023-02-28T13:09:41;9.00;49.50
74657;DHT22;63185;45.642;13.764;2023-02-28T13:12:16;9.00;48.60
74657;DHT22;63185;45.642;13.764;2023-02-28T13:14:42;9.10;49.00
74657;DHT22;63185;45.642;13.764;2023-02-28T13:19:56;9.00;48.80
74657;DHT22;63185;45.642;13.764;2023-02-28T13:24:56;8.70;49.40
74657;DHT22;63185;45.642;13.764;2023-02-28T13:27:41;8.80;49.90
74657;DHT22;63185;45.642;13.764;2023-02-28T13:33:24;8.90;49.70
74657;DHT22;63185;45.642;13.764;2023-02-28T13:38:35;8.90;49.50
74657;DHT22;63185;45.642;13.764;2023-02-28T13:44:05;8.60;49.20
74657;DHT22;63185;45.642;13.764;2023-02-28T13:46:33;8.70;49.50
74657;DHT22;63185;45.642;13.764;2023-02-28T13:49:32;8.70;49.20
74657;DHT22;63185;45.642;13.764;2023-02-28T13:55:12;8.70;49.00
74657;DHT22;63185;45.642;13.764;2023-02-28T14:06:36;9.10;47.90
74657;DHT22;63185;45.642;13.764;2023-02-28T14:15:25;9.30;47.30
74657;DHT22;63185;45.642;13.764;2023-02-28T14:17:53;9.20;47.70
74657;DHT22;63185;45.642;13.764;2023-02-28T14:20:21;9.30;47.40
74657;DHT22;63185;45.642;13.764;2023-02-28T14:26:01;9.50;46.40
74657;DHT22;63185;45.642;13.764;2023-02-28T14:36:43;9.70;46.30
74657;DHT22;63185;45.642;13.764;2023-02-28T14:39:22;9.70;46.10
74657;DHT22;63185;45.642;13.764;2023-02-28T14:41:48;9.60;46.30
74657;DHT22;63185;45.642;13.764;2023-02-28T14:44:20;9.60;46.80
74657;DHT22;63185;45.642;13.764;2023-02-28T14:46:50;9.70;46.20
74657;DHT22;63185;45.642;13.764;2023-02-28T14:49:20;9.50;46.30
74657;DHT22;63185;45.642;13.764;2023-02-28T14:51:49;9.60;46.50
74657;DHT22;63185;45.642;13.764;2023-02-28T14:54:17;9.60;46.50
74657;DHT22;63185;45.642;13.764;2023-02-28T14:56:50;9.80;46.10
74657;DHT22;63185;45.642;13.764;2023-02-28T14:59:28;10.00;45.80
74657;DHT22;63185;45.642;13.764;2023-02-28T15:04:39;10.30;44.70
74657;DHT22;63185;45.642;13.764;2023-02-28T15:07:13;10.50;44.40
74657;DHT22;63185;45.642;13.764;2023-02-28T15:09:39;10.50;45.00
74657;DHT22;63185;45.642;13.764;2023-02-28T15:12:05;10.60;44.10
74657;DHT22;63185;45.642;13.764;2023-02-28T15:14:31;10.90;43.60
74657;DHT22;63185;45.642;13.764;2023-02-28T15:17:06;10.90;43.00
74657;DHT22;63185;45.642;13.764;2023-02-28T15:19:36;10.60;43.60
74657;DHT22;63185;45.642;13.764;2023-02-28T15:22:11;11.30;42.30
74657;DHT22;63185;45.642;13.764;2023-02-28T15:24:49;12.10;41.00
74657;DHT22;63185;45.642;13.764;2023-02-28T15:27:42;12.90;39.40
74657;DHT22;63185;45.642;13.764;2023-02-28T15:30:19;12.60;38.90
74657;DHT22;63185;45.642;13.764;2023-02-28T15:33:24;13.00;38.30
74657;DHT22;63185;45.642;13.764;2023-02-28T15:35:48;13.10;37.90
74657;DHT22;63185;45.642;13.764;2023-02-28T15:38:25;13.00;38.40
74657;DHT22;63185;45.642;13.764;2023-02-28T15:40:57;13.50;37.10
74657;DHT22;63185;45.642;13.764;2023-02-28T15:46:09;13.70;36.60
74657;DHT22;63185;45.642;13.764;2023-02-28T15:48:44;13.40;37.70
74657;DHT22;63185;45.642;13.764;2023-02-28T16:03:26;11.30;41.00
74657;DHT22;63185;45.642;13.764;2023-02-28T16:08:47;11.80;40.40
74657;DHT22;63185;45.642;13.764;2023-02-28T16:11:14;11.90;40.40
74657;DHT22;63185;45.642;13.764;2023-02-28T16:13:40;11.60;41.30
74657;DHT22;63185;45.642;13.764;2023-02-28T16:16:06;11.50;41.50
74657;DHT22;63185;45.642;13.764;2023-02-28T16:18:32;11.70;41.20
74657;DHT22;63185;45.642;13.764;2023-02-28T16:20:57;11.30;41.60
74657;DHT22;63185;45.642;13.764;2023-02-28T16:23:23;11.10;42.20
74657;DHT22;63185;45.642;13.764;2023-02-28T16:25:49;10.80;42.80
74657;DHT22;63185;45.642;13.764;2023-02-28T16:28:25;10.40;43.70
74657;DHT22;63185;45.642;13.764;2023-02-28T16:30:56;10.20;44.20
74657;DHT22;63185;45.642;13.764;2023-02-28T16:33:22;10.40;43.80
74657;DHT22;63185;45.642;13.764;2023-02-28T16:35:48;10.10;44.10
74657;DHT22;63185;45.642;13.764;2023-02-28T16:38:14;9.20;46.20
74657;DHT22;63185;45.642;13.764;2023-02-28T16:40:40;8.70;47.90
74657;DHT22;63185;45.642;13.764;2023-02-28T16:43:10;8.40;48.70
74657;DHT22;63185;45.642;13.764;2023-02-28T16:45:40;7.80;50.20
74657;DHT22;63185;45.642;13.764;2023-02-28T16:48:10;7.60;50.70
74657;DHT22;63185;45.642;13.764;2023-02-28T16:50:38;7.40;51.60
74657;DHT22;63185;45.642;13.764;2023-02-28T16:53:04;7.40;51.40
74657;DHT22;63185;45.642;13.764;2023-02-28T16:55:30;7.30;51.70
74657;DHT22;63185;45.642;13.764;2023-02-28T16:57:58;7.20;51.70
74657;DHT22;63185;45.642;13.764;2023-02-28T17:00:25;7.20;52.10
74657;DHT22;63185;45.642;13.764;2023-02-28T17:02:51;7.10;52.40
74657;DHT22;63185;45.642;13.764;2023-02-28T17:05:18;7.10;52.60
74657;DHT22;63185;45.642;13.764;2023-02-28T17:07:44;7.00;52.40
74657;DHT22;63185;45.642;13.764;2023-02-28T17:10:16;7.00;52.90
74657;DHT22;63185;45.642;13.764;2023-02-28T17:12:42;7.00;53.00
74657;DHT22;63185;45.642;13.764;2023-02-28T17:15:09;7.00;52.70
74657;DHT22;63185;45.642;13.764;2023-02-28T17:17:35;6.90;53.00
74657;DHT22;63185;45.642;13.764;2023-02-28T17:20:02;6.90;52.70
74657;DHT22;63185;45.642;13.764;2023-02-28T17:22:28;7.00;52.50
74657;DHT22;63185;45.642;13.764;2023-02-28T17:24:54;6.90;52.80
74657;DHT22;63185;45.642;13.764;2023-02-28T17:27:24;7.00;52.80
74657;DHT22;63185;45.642;13.764;2023-02-28T17:29:50;6.90;52.80
74657;DHT22;63185;45.642;13.764;2023-02-28T17:32:16;6.90;52.60
74657;DHT22;63185;45.642;13.764;2023-02-28T17:34:42;6.90;52.40
74657;DHT22;63185;45.642;13.764;2023-02-28T17:37:09;6.80;52.40
74657;DHT22;63185;45.642;13.764;2023-02-28T17:39:35;6.90;52.50
74657;DHT22;63185;45.642;13.764;2023-02-28T17:42:01;6.90;52.20
74657;DHT22;63185;45.642;13.764;2023-02-28T17:44:27;6.90;52.40
74657;DHT22;63185;45.642;13.764;2023-02-28T17:46:54;6.80;52.50
74657;DHT22;63185;45.642;13.764;2023-02-28T17:49:22;6.80;52.50
74657;DHT22;63185;45.642;13.764;2023-02-28T17:51:48;6.80;52.60
74657;DHT22;63185;45.642;13.764;2023-02-28T17:54:14;6.80;52.70
74657;DHT22;63185;45.642;13.764;2023-02-28T17:56:41;6.70;52.60
74657;DHT22;63185;45.642;13.764;2023-02-28T17:59:09;6.70;52.70
74657;DHT22;63185;45.642;13.764;2023-02-28T18:01:35;6.70;53.00
74657;DHT22;63185;45.642;13.764;2023-02-28T18:04:01;6.70;52.70
74657;DHT22;63185;45.642;13.764;2023-02-28T18:06:31;6.70;52.80
74657;DHT22;63185;45.642;13.764;2023-02-28T18:08:59;6.70;52.80
74657;DHT22;63185;45.642;13.764;2023-02-28T18:11:24;6.60;52.70
74657;DHT22;63185;45.642;13.764;2023-02-28T18:13:52;6.60;52.70
74657;DHT22;63185;45.642;13.764;2023-02-28T18:16:20;6.60;53.20
74657;DHT22;63185;45.642;13.764;2023-02-28T18:18:47;6.60;52.60
74657;DHT22;63185;45.642;13.764;2023-02-28T18:21:14;6.60;52.40
74657;DHT22;63185;45.642;13.764;2023-02-28T18:23:41;6.60;52.40
74657;DHT22;63185;45.642;13.764;2023-02-28T18:26:17;6.60;52.60
74657;DHT22;63185;45.642;13.764;2023-02-28T18:28:43;6.70;52.50
74657;DHT22;63185;45.642;13.764;2023-02-28T18:31:11;6.70;52.20
74657;DHT22;63185;45.642;13.764;2023-02-28T18:33:37;6.70;52.20
74657;DHT22;63185;45.642;13.764;2023-02-28T18:36:04;6.70;52.20
74657;DHT22;63185;45.642;13.764;2023-02-28T18:38:30;6.70;52.30